Terminal Aerodrome Forecast
Issued by NWS Spokane, WA

Home | Current Version | Previous Version | Text Only | Print | Product List | Glossary On
Versions: 1 2 3 4 5 6 7 8 9 10 11 12 13 14 15 16 17 18 19 20
000
FTUS46 KOTX 240538
TAFEAT
TAF
KEAT 240538Z 2406/2506 35003KT P6SM SKC
     FM241100 30004KT P6SM BKN100
     FM241800 00000KT P6SM OVC050
     FM242100 12003KT P6SM VCSH SCT025 BKN050
     FM250200 VRB02KT P6SM BKN025=

USA.gov is the U.S. government's official web portal to all federal, state and local government web resources and services.